Time;durP1;ratioP1;P1;durP2;ratioP2;P2;SDS_P1;SDS_P2;PMS_P1;PMS_P2;Temp;Humidity;BMP_temperature;BMP_pressure;BME280_temperature;BME280_humidity;BME280_pressure;Samples;Min_cycle;Max_cycle;Signal;HPM_P1;HPM_P2
2021/07/22 00:02:13;;;;;;;10.93;7.10;;;17.20;99.90;;;;;;5033251;28;20212;-88
2021/07/22 00:04:39;;;;;;;12.55;6.75;;;17.10;99.90;;;;;;5033820;28;20172;-87
2021/07/22 00:07:04;;;;;;;10.45;6.72;;;17.20;99.90;;;;;;5015557;28;20187;-88
2021/07/22 00:09:30;;;;;;;12.73;7.38;;;17.20;99.90;;;;;;5033751;28;20629;-88
2021/07/22 00:11:56;;;;;;;12.63;7.28;;;17.20;99.90;;;;;;4999318;28;20188;-88
2021/07/22 00:14:21;;;;;;;12.43;7.55;;;17.20;99.90;;;;;;5034126;28;20687;-89
2021/07/22 00:16:47;;;;;;;13.65;7.85;;;17.10;99.90;;;;;;5033495;28;20538;-89
2021/07/22 00:19:13;;;;;;;13.32;7.70;;;17.10;99.90;;;;;;5033058;28;20176;-89
2021/07/22 00:21:39;;;;;;;11.45;7.40;;;17.20;99.90;;;;;;4999655;28;20233;-89
2021/07/22 00:24:05;;;;;;;13.38;7.15;;;17.10;99.90;;;;;;4999212;28;20193;-90
2021/07/22 00:26:30;;;;;;;11.98;7.15;;;17.20;99.90;;;;;;5033084;28;20679;-91
2021/07/22 00:28:59;;;;;;;10.35;6.88;;;17.20;99.90;;;;;;5014890;28;20207;-88
2021/07/22 00:31:25;;;;;;;12.52;7.60;;;17.10;99.90;;;;;;5015382;28;20177;-90
2021/07/22 00:33:51;;;;;;;12.05;7.13;;;17.10;99.90;;;;;;5033158;28;20252;-89
2021/07/22 00:36:16;;;;;;;12.55;7.53;;;17.10;99.90;;;;;;5015305;28;20239;-89
2021/07/22 00:38:43;;;;;;;10.82;7.13;;;17.10;99.90;;;;;;4983172;28;20181;-90
2021/07/22 00:41:11;;;;;;;12.38;6.90;;;17.20;99.90;;;;;;5015185;28;20188;-89
2021/07/22 00:43:40;;;;;;;11.15;7.03;;;17.20;99.90;;;;;;5033291;28;20219;-90
2021/07/22 00:46:06;;;;;;;10.55;6.88;;;17.20;99.90;;;;;;5018603;28;20203;-89
2021/07/22 00:48:32;;;;;;;9.02;6.53;;;17.10;99.90;;;;;;5033587;28;20208;-90
2021/07/22 00:50:58;;;;;;;11.20;6.78;;;17.10;99.90;;;;;;5015667;28;20211;-88
2021/07/22 00:53:23;;;;;;;10.15;6.55;;;17.10;99.90;;;;;;5033567;28;20176;-89
2021/07/22 00:55:49;;;;;;;14.80;6.95;;;17.10;99.90;;;;;;4999258;28;20247;-89
2021/07/22 00:58:15;;;;;;;15.75;7.20;;;17.10;99.90;;;;;;5015067;28;20180;-89
2021/07/22 01:00:40;;;;;;;10.18;6.80;;;17.10;99.90;;;;;;5015444;28;20187;-89
2021/07/22 01:03:06;;;;;;;12.07;6.82;;;17.10;99.90;;;;;;4998673;28;20692;-89
2021/07/22 01:05:32;;;;;;;10.27;7.03;;;17.00;99.90;;;;;;4998910;28;20276;-89
2021/07/22 01:07:57;;;;;;;10.38;5.63;;;17.00;99.90;;;;;;5014898;28;20226;-89
2021/07/22 01:10:23;;;;;;;13.93;6.68;;;17.00;99.90;;;;;;5032329;28;20213;-89
2021/07/22 01:12:49;;;;;;;16.73;6.78;;;17.00;99.90;;;;;;5032735;28;20172;-89
2021/07/22 01:15:14;;;;;;;10.15;6.40;;;17.00;99.90;;;;;;5014744;28;20207;-89
2021/07/22 01:17:42;;;;;;;10.73;6.57;;;17.00;99.90;;;;;;5014882;28;20181;-89
2021/07/22 01:20:21;;;;;;;7.03;5.53;;;17.00;99.90;;;;;;5014866;28;20206;-88
2021/07/22 01:22:49;;;;;;;10.48;6.18;;;17.00;99.90;;;;;;5015437;28;20745;-89
2021/07/22 01:25:16;;;;;;;10.85;6.45;;;17.00;99.90;;;;;;5014564;28;20234;-89
2021/07/22 01:27:42;;;;;;;11.65;6.20;;;17.00;99.90;;;;;;5032657;28;20263;-89
2021/07/22 01:30:10;;;;;;;14.23;6.72;;;17.00;99.90;;;;;;5032407;28;20605;-89
2021/07/22 01:32:36;;;;;;;14.07;7.22;;;16.90;99.90;;;;;;5015214;28;20189;-89
2021/07/22 01:35:02;;;;;;;10.25;6.75;;;16.90;99.90;;;;;;5015168;28;20538;-89
2021/07/22 01:37:28;;;;;;;11.98;6.50;;;16.90;99.90;;;;;;4998260;28;20184;-89
2021/07/22 01:39:54;;;;;;;12.88;6.45;;;16.80;99.90;;;;;;5033026;28;20226;-90
2021/07/22 01:42:19;;;;;;;10.13;6.38;;;16.80;99.90;;;;;;5035834;28;20232;-89
2021/07/22 01:44:45;;;;;;;12.98;8.13;;;16.80;99.90;;;;;;5018583;28;20282;-88
2021/07/22 01:47:11;;;;;;;11.02;6.60;;;16.80;99.90;;;;;;5036043;28;20191;-89
2021/07/22 01:49:37;;;;;;;13.20;7.20;;;16.80;99.90;;;;;;5036366;28;20200;-89
2021/07/22 01:52:07;;;;;;;10.27;7.28;;;16.70;99.90;;;;;;5002137;28;20224;-88
2021/07/22 01:54:33;;;;;;;10.85;6.95;;;16.70;99.90;;;;;;5018365;28;20671;-89
2021/07/22 01:57:00;;;;;;;10.95;6.97;;;16.70;99.90;;;;;;5018205;28;20696;-89
2021/07/22 01:59:35;;;;;;;18.92;6.65;;;16.60;99.90;;;;;;5001741;28;20180;-89
2021/07/22 02:02:02;;;;;;;10.57;6.90;;;16.60;99.90;;;;;;5018354;28;20702;-89
2021/07/22 02:04:28;;;;;;;11.40;7.03;;;16.60;99.90;;;;;;5017892;28;20956;-89
2021/07/22 02:06:54;;;;;;;12.25;7.47;;;16.60;99.90;;;;;;5035924;28;20230;-89
2021/07/22 02:09:19;;;;;;;12.45;6.25;;;16.60;99.90;;;;;;5001426;28;20184;-90
2021/07/22 02:11:45;;;;;;;22.45;6.95;;;16.50;99.90;;;;;;5035714;28;20180;-89
2021/07/22 02:14:11;;;;;;;14.25;7.53;;;16.60;99.90;;;;;;5017737;28;20172;-89
2021/07/22 02:16:39;;;;;;;13.25;7.13;;;16.50;99.90;;;;;;5002025;28;20223;-89
2021/07/22 02:19:05;;;;;;;14.27;7.57;;;16.50;99.90;;;;;;5035921;28;20232;-90
2021/07/22 02:21:30;;;;;;;11.05;6.57;;;16.50;99.90;;;;;;5001312;28;20287;-91
2021/07/22 02:23:56;;;;;;;9.90;6.90;;;16.50;99.90;;;;;;5001789;28;20181;-90
2021/07/22 02:26:22;;;;;;;11.23;7.07;;;16.40;99.90;;;;;;5035201;28;20188;-89
2021/07/22 02:28:48;;;;;;;17.23;6.97;;;16.40;99.90;;;;;;5017874;28;20185;-90
2021/07/22 02:31:13;;;;;;;14.98;7.28;;;16.40;99.90;;;;;;5017586;28;20674;-91
2021/07/22 02:33:39;;;;;;;12.60;6.93;;;16.40;99.90;;;;;;5017836;28;20183;-90
2021/07/22 02:36:04;;;;;;;12.20;7.35;;;16.30;99.90;;;;;;5035296;28;20207;-89
2021/07/22 02:38:30;;;;;;;13.00;7.32;;;16.30;99.90;;;;;;5035167;28;20184;-89
2021/07/22 02:40:56;;;;;;;13.05;7.35;;;16.30;99.90;;;;;;5035046;28;20553;-90
2021/07/22 02:43:21;;;;;;;10.95;7.07;;;16.30;99.90;;;;;;5000653;28;20240;-90
2021/07/22 02:45:47;;;;;;;14.75;8.00;;;16.30;99.90;;;;;;5001404;28;20191;-90
2021/07/22 02:48:13;;;;;;;11.48;7.30;;;16.30;99.90;;;;;;4984930;28;20181;-90
2021/07/22 02:50:38;;;;;;;14.63;6.95;;;17.50;99.90;;;;;;5000389;28;20184;-91
2021/07/22 02:53:04;;;;;;;13.15;7.97;;;16.20;99.90;;;;;;4984724;28;20207;-90
2021/07/22 02:55:30;;;;;;;11.20;6.93;;;16.20;99.90;;;;;;5034434;28;20215;-88
2021/07/22 02:57:55;;;;;;;15.55;7.47;;;16.20;99.90;;;;;;5017213;28;20200;-90
2021/07/22 03:00:21;;;;;;;15.85;7.55;;;16.20;99.90;;;;;;5000614;28;20234;-89
2021/07/22 03:02:47;;;;;;;9.98;7.20;;;16.20;99.90;;;;;;5017140;28;20211;-90
2021/07/22 03:05:13;;;;;;;12.80;6.95;;;16.20;99.90;;;;;;5017231;28;20679;-90
2021/07/22 03:07:39;;;;;;;11.30;7.13;;;16.20;99.90;;;;;;5034865;28;20211;-89
2021/07/22 03:10:05;;;;;;;14.98;7.22;;;16.20;99.90;;;;;;5000959;28;20270;-90
2021/07/22 03:12:31;;;;;;;11.13;7.05;;;16.20;99.90;;;;;;5016913;28;20189;-90
2021/07/22 03:14:57;;;;;;;13.85;7.78;;;16.20;99.90;;;;;;5017598;28;20582;-89
2021/07/22 03:17:22;;;;;;;12.27;7.53;;;16.20;99.90;;;;;;5016958;28;20176;-88
2021/07/22 03:19:48;;;;;;;11.05;6.95;;;16.20;99.90;;;;;;5017100;28;20185;-88
2021/07/22 03:22:15;;;;;;;10.00;6.50;;;16.20;99.90;;;;;;5034659;28;20207;-89
2021/07/22 03:24:41;;;;;;;10.02;6.88;;;16.20;99.90;;;;;;5016874;28;20196;-89
2021/07/22 03:27:06;;;;;;;14.15;7.15;;;16.20;99.90;;;;;;5034451;28;20230;-89
2021/07/22 03:29:32;;;;;;;10.30;6.85;;;16.20;99.90;;;;;;5016958;28;20613;-90
2021/07/22 03:32:00;;;;;;;10.07;6.72;;;16.20;99.90;;;;;;5016765;28;20180;-92
2021/07/22 03:34:26;;;;;;;14.65;7.47;;;16.20;99.90;;;;;;5016571;28;20235;-92
2021/07/22 03:36:52;;;;;;;10.10;6.80;;;16.20;99.90;;;;;;5017216;28;20514;-91
2021/07/22 03:39:17;;;;;;;10.60;7.07;;;16.30;99.90;;;;;;5016848;28;20675;-91
2021/07/22 03:41:49;;;;;;;9.65;6.50;;;16.30;99.90;;;;;;5034077;28;20668;-93
2021/07/22 03:44:16;;;;;;;17.08;7.38;;;16.30;99.90;;;;;;5017873;28;20584;-92
2021/07/22 03:46:42;;;;;;;10.73;7.22;;;16.30;99.90;;;;;;5034611;28;20246;-92
2021/07/22 03:49:08;;;;;;;12.02;6.97;;;16.40;99.90;;;;;;5016918;28;20191;-92
2021/07/22 03:51:34;;;;;;;15.32;7.60;;;16.30;99.90;;;;;;5016566;28;20177;-91
2021/07/22 03:54:00;;;;;;;12.02;7.18;;;16.40;99.90;;;;;;5000342;28;20640;-92
2021/07/22 03:56:26;;;;;;;12.40;6.80;;;16.40;99.90;;;;;;5015667;28;20681;-89
2021/07/22 03:58:55;;;;;;;17.25;7.65;;;16.40;99.90;;;;;;4996988;28;20181;-89
2021/07/22 04:01:20;;;;;;;15.07;7.43;;;16.40;99.90;;;;;;5013388;28;20185;-89
2021/07/22 04:03:46;;;;;;;9.95;7.78;;;16.50;99.90;;;;;;5012763;28;20543;-89
2021/07/22 04:06:11;;;;;;;16.90;8.57;;;16.50;99.90;;;;;;5013637;28;20185;-89
2021/07/22 04:08:38;;;;;;;12.82;7.75;;;16.50;99.90;;;;;;5013778;28;20177;-89
2021/07/22 04:11:03;;;;;;;17.17;7.40;;;16.50;99.90;;;;;;5013154;28;20177;-90
2021/07/22 04:13:29;;;;;;;13.50;7.13;;;16.60;99.90;;;;;;5012504;28;20529;-90
2021/07/22 04:15:55;;;;;;;13.45;7.07;;;16.60;99.90;;;;;;5013940;28;20180;-90
2021/07/22 04:18:20;;;;;;;15.88;7.38;;;16.60;99.90;;;;;;5012615;28;20184;-90
2021/07/22 04:20:46;;;;;;;19.55;7.38;;;16.70;99.90;;;;;;5013590;28;20188;-90
2021/07/22 04:23:12;;;;;;;10.40;6.95;;;16.70;99.90;;;;;;5013598;28;20219;-90
2021/07/22 04:25:38;;;;;;;12.18;6.53;;;16.70;99.90;;;;;;5012371;28;20215;-90
2021/07/22 04:28:04;;;;;;;15.05;6.63;;;16.80;99.90;;;;;;5012765;28;20268;-89
2021/07/22 04:30:29;;;;;;;23.70;6.65;;;16.80;99.90;;;;;;5013600;28;20250;-88
2021/07/22 04:32:58;;;;;;;15.70;7.38;;;16.80;99.90;;;;;;5012570;28;20240;-90
2021/07/22 04:35:23;;;;;;;9.35;6.60;;;16.90;99.90;;;;;;4996304;28;20219;-90
2021/07/22 04:37:49;;;;;;;12.23;6.88;;;16.80;99.90;;;;;;5011870;28;20235;-90
2021/07/22 04:40:15;;;;;;;13.43;6.28;;;16.90;99.90;;;;;;5013828;28;20177;-90
2021/07/22 04:42:40;;;;;;;13.15;6.95;;;17.00;99.90;;;;;;5012066;28;20225;-89
2021/07/22 04:45:07;;;;;;;10.60;7.20;;;17.00;99.90;;;;;;5012176;28;20234;-90
2021/07/22 04:47:32;;;;;;;9.50;6.40;;;17.00;99.90;;;;;;5013345;28;20264;-90
2021/07/22 04:49:58;;;;;;;9.55;6.22;;;17.00;99.90;;;;;;5013856;28;20276;-91
2021/07/22 04:52:24;;;;;;;10.75;6.25;;;17.00;99.90;;;;;;5014098;28;20211;-94
2021/07/22 04:54:49;;;;;;;11.73;6.43;;;17.00;99.90;;;;;;5018695;28;20181;-92
2021/07/22 04:57:15;;;;;;;14.02;6.60;;;17.00;99.90;;;;;;5036152;28;20225;-90
2021/07/22 04:59:41;;;;;;;10.20;6.78;;;17.00;99.90;;;;;;5020751;28;20200;-90
2021/07/22 05:02:06;;;;;;;12.18;7.00;;;17.00;99.90;;;;;;5037394;28;20205;-92
2021/07/22 05:04:32;;;;;;;11.95;6.28;;;17.10;99.90;;;;;;5021286;28;20204;-90
2021/07/22 05:06:58;;;;;;;13.57;6.65;;;17.10;99.90;;;;;;5014928;28;20177;-89
2021/07/22 05:09:24;;;;;;;13.02;6.82;;;17.10;99.90;;;;;;5016738;28;20184;-92
2021/07/22 05:11:49;;;;;;;13.32;6.80;;;17.10;99.90;;;;;;4984081;28;20215;-89
2021/07/22 05:14:15;;;;;;;11.02;7.05;;;17.20;99.90;;;;;;5021839;28;20189;-92
2021/07/22 05:16:41;;;;;;;12.07;6.60;;;17.20;99.90;;;;;;4999926;28;20181;-91
2021/07/22 05:19:06;;;;;;;9.98;6.60;;;17.20;99.90;;;;;;5016283;28;20184;-91
2021/07/22 05:21:32;;;;;;;11.07;6.55;;;17.30;99.90;;;;;;5017523;28;20231;-91
2021/07/22 05:23:58;;;;;;;14.82;7.30;;;17.40;99.90;;;;;;5000173;28;20177;-92
2021/07/22 05:26:25;;;;;;;16.90;6.75;;;17.40;99.90;;;;;;5000738;28;20184;-95
2021/07/22 05:28:51;;;;;;;15.40;6.25;;;17.50;99.90;;;;;;5000229;28;20186;-92
2021/07/22 05:31:17;;;;;;;12.18;5.93;;;17.50;99.90;;;;;;4984145;28;20209;-93
2021/07/22 05:33:43;;;;;;;11.07;6.07;;;17.60;99.90;;;;;;5015858;28;20683;-93
2021/07/22 05:36:09;;;;;;;10.57;6.68;;;17.60;99.90;;;;;;5000583;28;20657;-92
2021/07/22 05:38:36;;;;;;;15.27;5.97;;;17.70;99.90;;;;;;5016045;28;20247;-91
2021/07/22 05:41:04;;;;;;;8.13;5.88;;;17.80;99.90;;;;;;5014969;28;20697;-92
2021/07/22 05:43:30;;;;;;;9.80;5.63;;;17.80;99.90;;;;;;5019386;28;20283;-90
2021/07/22 05:45:56;;;;;;;10.00;6.00;;;18.00;99.90;;;;;;5016102;28;20713;-91
2021/07/22 05:48:22;;;;;;;16.70;6.18;;;18.00;99.90;;;;;;5016423;28;20196;-92
2021/07/22 05:50:51;;;;;;;10.90;5.90;;;18.10;99.90;;;;;;5016028;28;20615;-90
2021/07/22 05:53:17;;;;;;;13.85;5.07;;;18.10;99.90;;;;;;4999344;28;20181;-90
2021/07/22 05:55:43;;;;;;;11.07;6.00;;;18.20;99.90;;;;;;5000254;28;20189;-93
2021/07/22 05:58:09;;;;;;;12.27;5.90;;;18.20;99.90;;;;;;5002821;28;20176;-92
2021/07/22 06:00:35;;;;;;;10.60;5.55;;;18.20;99.90;;;;;;5002755;28;20629;-91
2021/07/22 06:03:05;;;;;;;12.80;5.50;;;18.20;99.90;;;;;;5018572;28;20602;-92
2021/07/22 06:05:32;;;;;;;13.77;7.00;;;18.30;99.90;;;;;;5035851;28;20417;-92
2021/07/22 06:08:00;;;;;;;14.80;5.60;;;18.40;99.90;;;;;;5018918;28;20176;-91
2021/07/22 06:10:25;;;;;;;11.98;5.07;;;18.40;99.90;;;;;;5036424;28;20173;-92
2021/07/22 06:12:51;;;;;;;11.73;5.63;;;18.40;99.90;;;;;;5025484;28;20200;-91
2021/07/22 06:15:17;;;;;;;17.83;6.80;;;18.50;99.90;;;;;;4996515;28;20735;-92
2021/07/22 06:17:43;;;;;;;14.27;4.95;;;18.50;99.90;;;;;;4995698;28;20227;-91
2021/07/22 06:20:09;;;;;;;18.75;6.60;;;18.50;99.90;;;;;;5018732;28;20808;-90
2021/07/22 06:22:35;;;;;;;13.18;5.90;;;18.60;99.90;;;;;;5038290;28;20238;-93
2021/07/22 06:25:02;;;;;;;13.10;5.65;;;18.60;99.90;;;;;;5006936;28;20262;-94
2021/07/22 06:27:27;;;;;;;11.75;5.72;;;18.80;99.90;;;;;;5005967;28;20189;-93
2021/07/22 06:29:53;;;;;;;15.25;5.70;;;19.00;99.90;;;;;;5016393;28;20586;-93
2021/07/22 06:32:19;;;;;;;14.32;5.50;;;19.00;99.90;;;;;;5020181;28;20183;-91
2021/07/22 06:34:44;;;;;;;10.00;4.60;;;19.10;99.90;;;;;;4993596;28;20651;-96
2021/07/22 06:37:10;;;;;;;8.80;5.30;;;17.50;99.90;;;;;;4993249;28;20184;-89
2021/07/22 06:39:35;;;;;;;9.32;5.15;;;19.30;99.90;;;;;;4996032;28;20552;-89
2021/07/22 06:42:02;;;;;;;9.52;5.50;;;19.40;99.90;;;;;;5006156;28;20738;-89
2021/07/22 06:44:28;;;;;;;13.32;4.95;;;19.50;99.90;;;;;;5015753;28;20188;-89
2021/07/22 06:46:54;;;;;;;12.40;4.75;;;19.50;99.90;;;;;;5016495;28;20196;-89
2021/07/22 06:49:20;;;;;;;12.40;4.60;;;19.50;99.90;;;;;;5015751;28;20223;-90
2021/07/22 06:51:48;;;;;;;17.33;5.00;;;19.70;99.90;;;;;;5010894;28;20288;-88
2021/07/22 06:54:14;;;;;;;11.02;3.83;;;19.80;99.90;;;;;;5010955;28;20552;-92
2021/07/22 06:56:40;;;;;;;9.07;4.10;;;19.90;99.90;;;;;;5034371;28;20312;-90
2021/07/22 06:59:05;;;;;;;8.85;3.78;;;20.00;99.90;;;;;;5033354;28;20271;-90
2021/07/22 07:01:31;;;;;;;17.98;4.68;;;20.00;99.90;;;;;;4983632;28;20640;-93
2021/07/22 07:03:57;;;;;;;6.40;4.05;;;20.10;99.90;;;;;;4999483;28;20188;-94
2021/07/22 07:06:22;;;;;;;12.10;4.90;;;20.20;99.90;;;;;;5017721;28;20197;-92
2021/07/22 07:08:48;;;;;;;5.25;3.55;;;20.40;99.90;;;;;;5014403;28;20250;-89
2021/07/22 07:11:14;;;;;;;8.43;4.00;;;20.50;99.90;;;;;;5016383;28;20331;-91
2021/07/22 07:13:39;;;;;;;6.78;3.60;;;20.50;99.90;;;;;;4984294;28;20272;-87
2021/07/22 07:16:06;;;;;;;7.15;3.50;;;20.70;99.90;;;;;;4992703;28;20188;-90
2021/07/22 07:18:32;;;;;;;5.88;3.55;;;20.90;99.90;;;;;;5042503;28;20216;-90
2021/07/22 07:21:04;;;;;;;4.38;3.17;;;20.90;99.90;;;;;;5006211;28;20242;-90
2021/07/22 07:23:32;;;;;;;9.70;3.67;;;21.10;99.90;;;;;;5024413;28;20208;-92
2021/07/22 07:25:58;;;;;;;6.10;3.13;;;21.20;99.90;;;;;;5034806;28;20188;-94
2021/07/22 07:28:23;;;;;;;14.55;6.95;;;21.30;99.90;;;;;;5029475;28;20226;-94
2021/07/22 07:30:49;;;;;;;5.15;2.47;;;21.30;99.90;;;;;;5001103;28;20181;-95
2021/07/22 07:33:15;;;;;;;6.50;3.40;;;21.50;99.90;;;;;;5017050;28;20192;-93
2021/07/22 07:35:40;;;;;;;10.93;3.35;;;21.50;99.90;;;;;;5015905;28;20587;-92
2021/07/22 07:38:06;;;;;;;4.30;2.70;;;21.70;99.90;;;;;;5016150;28;20195;-91
2021/07/22 07:40:32;;;;;;;5.30;2.50;;;21.90;99.90;;;;;;5016023;28;20219;-89
2021/07/22 07:42:58;;;;;;;6.82;3.05;;;22.00;99.90;;;;;;5033125;28;20211;-90
2021/07/22 07:45:27;;;;;;;9.00;2.97;;;22.20;99.90;;;;;;5014754;28;20192;-93
2021/07/22 07:47:53;;;;;;;9.40;2.75;;;22.30;99.90;;;;;;5032752;28;20259;-93
2021/07/22 07:50:19;;;;;;;8.32;3.13;;;22.40;99.90;;;;;;5016658;28;20298;-94
2021/07/22 07:52:46;;;;;;;3.85;2.20;;;22.50;99.90;;;;;;5017181;28;20798;-94
2021/07/22 07:55:12;;;;;;;4.57;2.08;;;22.50;99.90;;;;;;4998659;28;20223;-94
2021/07/22 07:57:38;;;;;;;2.45;2.08;;;22.60;99.90;;;;;;5004412;28;20228;-94
2021/07/22 08:00:06;;;;;;;4.35;1.80;;;22.70;99.90;;;;;;5016129;28;20192;-93
2021/07/22 08:02:31;;;;;;;10.90;2.33;;;22.60;99.90;;;;;;4996776;28;20784;-96
2021/07/22 08:04:57;;;;;;;3.40;2.10;;;22.60;99.90;;;;;;4998876;28;20193;-92
2021/07/22 08:07:26;;;;;;;6.85;2.30;;;22.70;99.90;;;;;;5014680;28;20185;-95
2021/07/22 08:09:52;;;;;;;7.30;2.13;;;22.70;99.90;;;;;;5013964;28;20193;-95
2021/07/22 08:12:19;;;;;;;3.58;2.20;;;22.70;99.90;;;;;;5033007;28;20208;-94
2021/07/22 08:14:45;;;;;;;7.75;2.53;;;22.60;99.90;;;;;;5012508;28;20215;-91
2021/07/22 08:17:21;;;;;;;2.63;2.00;;;22.50;99.90;;;;;;5030204;28;20287;-91
2021/07/22 08:19:46;;;;;;;2.80;1.88;;;22.60;99.90;;;;;;5013064;28;20184;-93
2021/07/22 08:22:13;;;;;;;2.88;2.15;;;22.70;99.90;;;;;;4996854;28;20215;-93
2021/07/22 08:24:39;;;;;;;6.80;2.40;;;22.80;99.90;;;;;;5030717;28;20239;-92
2021/07/22 08:27:05;;;;;;;7.90;2.15;;;23.00;99.90;;;;;;5031608;28;20214;-94
2021/07/22 08:29:31;;;;;;;5.60;2.10;;;23.20;99.90;;;;;;5014576;28;20192;-92
2021/07/22 08:31:57;;;;;;;3.33;2.05;;;23.30;99.90;;;;;;5015175;28;20218;-93
2021/07/22 08:34:24;;;;;;;5.90;2.90;;;23.20;99.90;;;;;;4984705;28;20231;-94
2021/07/22 08:36:50;;;;;;;2.83;2.17;;;23.10;99.90;;;;;;5015008;28;20653;-94
2021/07/22 08:39:16;;;;;;;3.85;2.22;;;23.10;99.90;;;;;;4996558;28;20215;-91
2021/07/22 08:41:46;;;;;;;3.83;2.08;;;23.20;99.90;;;;;;5012511;28;20708;-92
2021/07/22 08:44:13;;;;;;;3.92;2.28;;;23.50;99.90;;;;;;5011683;28;20188;-90
2021/07/22 08:46:45;;;;;;;8.00;2.75;;;23.70;99.90;;;;;;5042318;23;20237;-91
2021/07/22 08:49:11;;;;;;;4.85;1.90;;;23.40;99.90;;;;;;4996003;28;20725;-92
2021/07/22 08:51:37;;;;;;;5.05;2.30;;;23.00;99.90;;;;;;4992720;28;20186;-88
2021/07/22 08:54:03;;;;;;;3.67;2.42;;;23.10;99.90;;;;;;4989686;28;20752;-90
2021/07/22 08:56:30;;;;;;;4.72;2.30;;;23.20;99.90;;;;;;4995164;28;20185;-90
2021/07/22 08:58:57;;;;;;;7.00;2.47;;;23.50;99.90;;;;;;4995503;28;20190;-92
2021/07/22 09:01:26;;;;;;;4.22;2.38;;;23.70;99.90;;;;;;4999235;28;20178;-91
2021/07/22 09:03:52;;;;;;;5.80;2.60;;;24.00;99.90;;;;;;4987369;28;20197;-88
2021/07/22 09:06:19;;;;;;;3.38;2.22;;;23.60;99.90;;;;;;4998014;28;20177;-89
2021/07/22 09:08:45;;;;;;;3.25;2.40;;;23.80;99.90;;;;;;4994887;28;20191;-91
2021/07/22 09:11:11;;;;;;;11.55;2.30;;;23.60;99.90;;;;;;4992446;28;20195;-88
2021/07/22 09:13:38;;;;;;;4.43;2.45;;;24.10;99.90;;;;;;4998080;28;20199;-89
2021/07/22 09:16:04;;;;;;;2.85;2.10;;;23.60;99.90;;;;;;4995188;28;20174;-90
2021/07/22 09:18:35;;;;;;;2.88;1.85;;;23.50;99.90;;;;;;5000549;28;20181;-91
2021/07/22 09:21:22;;;;;;;2.78;2.00;;;23.30;99.40;;;;;;4996410;28;20268;-90
2021/07/22 09:24:09;;;;;;;5.63;1.83;;;23.40;99.90;;;;;;4990216;28;20190;-92
2021/07/22 09:26:39;;;;;;;4.63;2.17;;;23.70;99.70;;;;;;4992621;28;20182;-91
2021/07/22 09:29:10;;;;;;;6.80;2.22;;;23.90;98.70;;;;;;4992339;28;20205;-91
2021/07/22 09:31:37;;;;;;;5.45;2.45;;;24.00;97.80;;;;;;4992119;28;20324;-90
2021/07/22 09:34:12;;;;;;;4.63;2.10;;;24.10;98.30;;;;;;4991460;28;20236;-90
2021/07/22 09:36:38;;;;;;;5.00;2.50;;;24.20;96.70;;;;;;4990593;28;20564;-90
2021/07/22 09:39:28;;;;;;;4.72;2.03;;;24.10;96.20;;;;;;4990520;28;20658;-89
2021/07/22 09:42:02;;;;;;;4.88;2.42;;;24.00;96.50;;;;;;4990968;28;20206;-91
2021/07/22 09:44:36;;;;;;;5.47;2.22;;;24.00;96.80;;;;;;4991157;28;20216;-90
2021/07/22 09:47:03;;;;;;;7.38;2.20;;;24.10;97.30;;;;;;4986891;28;20578;-91
2021/07/22 09:49:41;;;;;;;7.68;3.45;;;22.80;97.00;;;;;;4954480;28;20178;-95
2021/07/22 09:52:16;;;;;;;9.43;2.95;;;24.60;97.80;;;;;;4984343;28;20193;-89
2021/07/22 09:54:41;;;;;;;6.25;3.15;;;24.60;96.80;;;;;;4993976;28;20201;-89
2021/07/22 09:57:19;;;;;;;4.72;2.22;;;24.30;96.80;;;;;;4991263;28;20577;-91
2021/07/22 09:59:46;;;;;;;3.40;1.92;;;24.10;97.50;;;;;;4992807;28;20205;-94
2021/07/22 10:02:23;;;;;;;2.95;1.80;;;23.80;97.00;;;;;;5004353;28;20680;-93
2021/07/22 10:05:03;;;;;;;3.72;1.95;;;23.60;97.20;;;;;;5017233;28;20218;-94
2021/07/22 10:07:30;;;;;;;8.57;1.85;;;23.50;98.00;;;;;;5016212;28;20264;-94
2021/07/22 10:09:58;;;;;;;6.50;2.00;;;23.40;98.70;;;;;;5000471;28;20181;-91
2021/07/22 10:12:25;;;;;;;6.50;2.60;;;23.40;99.10;;;;;;5011909;28;20178;-94
2021/07/22 10:14:55;;;;;;;4.43;1.90;;;23.50;98.40;;;;;;4998793;28;20269;-95
2021/07/22 10:17:33;;;;;;;7.00;2.00;;;23.40;97.80;;;;;;4999618;28;20185;-93
2021/07/22 10:20:02;;;;;;;2.55;1.80;;;23.40;98.40;;;;;;5002246;28;20232;-94
2021/07/22 10:22:28;;;;;;;9.25;2.42;;;23.50;97.60;;;;;;4997204;28;20209;-92
2021/07/22 10:25:01;;;;;;;5.30;2.22;;;23.70;98.50;;;;;;4985333;28;20197;-92
2021/07/22 10:27:26;;;;;;;11.02;2.40;;;23.90;97.40;;;;;;4995877;28;20228;-95
2021/07/22 10:29:53;;;;;;;6.10;2.53;;;26.00;98.60;;;;;;4996249;28;20214;-93
2021/07/22 10:32:21;;;;;;;5.40;2.10;;;24.20;98.10;;;;;;4997194;28;20220;-92
2021/07/22 10:34:48;;;;;;;3.55;2.00;;;24.40;97.00;;;;;;4988469;28;20745;-92
2021/07/22 10:37:20;;;;;;;5.72;2.20;;;24.40;97.00;;;;;;4979665;28;20178;-92
2021/07/22 10:40:08;;;;;;;2.92;2.10;;;24.70;97.20;;;;;;5003208;28;20210;-91
2021/07/22 10:42:40;;;;;;;3.40;1.90;;;25.00;95.70;;;;;;4996270;28;20285;-92
2021/07/22 10:45:28;;;;;;;2.50;1.85;;;25.20;94.80;;;;;;4984596;28;20642;-93
2021/07/22 10:48:09;;;;;;;6.32;1.80;;;25.40;94.90;;;;;;4977297;28;20230;-94
2021/07/22 10:50:42;;;;;;;5.32;1.90;;;25.60;94.40;;;;;;4991445;28;20174;-89
2021/07/22 10:53:09;;;;;;;4.35;2.00;;;25.60;93.80;;;;;;4992442;28;20186;-89
2021/07/22 10:55:54;;;;;;;2.90;1.92;;;25.80;93.80;;;;;;4992967;28;20182;-89
2021/07/22 10:58:23;;;;;;;5.40;2.00;;;25.70;93.20;;;;;;4993012;28;20194;-89
2021/07/22 11:00:49;;;;;;;5.28;2.35;;;25.80;93.30;;;;;;5008337;28;20591;-89
2021/07/22 11:03:35;;;;;;;8.60;2.40;;;26.10;93.50;;;;;;4993207;28;20208;-89
2021/07/22 11:06:08;;;;;;;3.97;2.03;;;26.30;92.80;;;;;;4980889;28;20310;-89
2021/07/22 11:08:37;;;;;;;2.45;1.58;;;26.40;92.10;;;;;;4969055;28;20182;-90
2021/07/22 11:11:09;;;;;;;6.40;2.10;;;26.40;92.20;;;;;;4993451;28;20209;-91
2021/07/22 11:13:38;;;;;;;7.03;1.83;;;26.40;92.30;;;;;;4994991;28;20197;-96
2021/07/22 11:18:54;;;;;;;5.53;2.08;;;26.10;92.10;;;;;;4993766;28;20635;-85
2021/07/22 11:21:26;;;;;;;5.90;2.05;;;25.80;92.90;;;;;;4991644;28;20245;-86
2021/07/22 11:24:18;;;;;;;3.85;2.03;;;25.80;93.40;;;;;;4993094;28;20197;-88
2021/07/22 11:26:49;;;;;;;6.97;2.20;;;25.70;92.30;;;;;;4992745;28;20174;-87
2021/07/22 11:29:16;;;;;;;2.92;2.00;;;25.50;92.60;;;;;;4993425;28;20220;-87
2021/07/22 11:31:46;;;;;;;10.55;2.20;;;25.40;92.70;;;;;;4991741;28;20282;-86
2021/07/22 11:34:13;;;;;;;8.30;2.40;;;25.30;92.50;;;;;;4993455;28;20178;-89
2021/07/22 11:36:39;;;;;;;2.85;2.08;;;25.10;92.00;;;;;;4993505;28;20661;-86
2021/07/22 11:39:06;;;;;;;4.40;2.63;;;24.80;91.90;;;;;;4994109;28;20182;-87
2021/07/22 11:41:32;;;;;;;6.18;1.83;;;24.90;92.10;;;;;;4990648;28;20189;-88
2021/07/22 11:44:00;;;;;;;3.90;2.10;;;24.70;92.00;;;;;;4982685;28;20639;-88
2021/07/22 11:46:37;;;;;;;6.15;2.63;;;24.60;92.10;;;;;;4972022;28;20651;-87
2021/07/22 11:49:11;;;;;;;3.45;2.70;;;24.60;92.60;;;;;;4973254;28;20332;-85
2021/07/22 11:51:38;;;;;;;5.15;1.73;;;24.50;92.90;;;;;;4972813;28;20182;-86
2021/07/22 11:54:04;;;;;;;3.13;2.33;;;24.50;92.20;;;;;;4973093;28;20221;-87
2021/07/22 11:56:34;;;;;;;5.30;2.20;;;24.40;91.60;;;;;;4973017;28;20232;-86
2021/07/22 11:59:04;;;;;;;7.72;2.42;;;24.50;91.20;;;;;;4973074;28;20273;-85
2021/07/22 12:01:31;;;;;;;4.65;2.13;;;24.50;91.30;;;;;;4973692;28;20182;-85
2021/07/22 12:03:57;;;;;;;5.35;2.38;;;24.50;92.10;;;;;;4974877;28;20222;-85
2021/07/22 12:06:28;;;;;;;2.78;1.90;;;24.70;91.00;;;;;;4982050;28;20209;-85
2021/07/22 12:09:08;;;;;;;4.07;1.95;;;24.70;89.40;;;;;;4983866;28;20345;-86
2021/07/22 12:11:44;;;;;;;4.50;1.63;;;24.80;89.40;;;;;;4988683;28;20176;-85
2021/07/22 12:14:10;;;;;;;2.92;1.60;;;24.80;86.50;;;;;;4991848;28;20197;-87
2021/07/22 12:16:36;;;;;;;2.40;1.80;;;24.90;87.40;;;;;;4975481;28;20202;-86
2021/07/22 12:19:02;;;;;;;1.60;1.50;;;25.00;86.90;;;;;;4992066;28;20186;-86
2021/07/22 12:21:29;;;;;;;2.90;1.95;;;25.20;86.00;;;;;;4975164;28;20182;-86
2021/07/22 12:24:18;;;;;;;3.28;1.70;;;25.40;86.40;;;;;;4990839;28;20530;-84
2021/07/22 12:26:44;;;;;;;3.42;1.70;;;25.60;87.00;;;;;;4991047;28;20174;-87
2021/07/22 12:29:10;;;;;;;2.60;1.98;;;25.50;87.00;;;;;;4994439;28;20701;-87
2021/07/22 12:31:40;;;;;;;2.22;1.60;;;25.70;87.00;;;;;;4991907;28;20260;-89
2021/07/22 12:34:07;;;;;;;6.18;1.75;;;25.80;84.40;;;;;;4989236;28;20705;-86
2021/07/22 12:36:34;;;;;;;5.43;2.03;;;25.70;81.60;;;;;;4991619;28;20209;-86
2021/07/22 12:39:18;;;;;;;4.20;1.70;;;25.30;83.10;;;;;;4994245;28;20729;-85
2021/07/22 12:41:47;;;;;;;1.85;1.33;;;25.60;84.20;;;;;;4991158;28;20170;-86
2021/07/22 12:44:44;;;;;;;7.97;1.90;;;25.90;83.90;;;;;;4980489;28;20198;-87
2021/07/22 12:47:25;;;;;;;7.95;1.67;;;26.10;84.00;;;;;;4990458;28;20225;-85